createdAt,value
2022-09-02T00:04:31.926Z,3.47
2022-09-02T00:09:37.785Z,2.63
2022-09-02T00:14:41.365Z,2.77
2022-09-02T00:19:44.809Z,4.07
2022-09-02T00:24:49.664Z,3.30
2022-09-02T00:29:53.473Z,3.43
2022-09-02T00:34:58.959Z,2.80
2022-09-02T00:40:05.267Z,3.00
2022-09-02T00:45:10.561Z,3.07
2022-09-02T00:50:16.874Z,3.43
2022-09-02T00:55:24.494Z,4.00
2022-09-02T01:00:31.291Z,3.30
2022-09-02T01:05:45.626Z,3.20
2022-09-02T01:10:50.811Z,2.70
2022-09-02T01:15:57.291Z,5.03
2022-09-02T01:21:02.254Z,4.73
2022-09-02T01:26:08.218Z,3.00
2022-09-02T01:31:12.019Z,4.23
2022-09-02T01:36:15.537Z,3.10
2022-09-02T01:41:20.679Z,3.23
2022-09-02T01:46:24.612Z,3.13
2022-09-02T01:51:28.168Z,3.23
2022-09-02T01:56:33.118Z,3.00
2022-09-02T02:01:37.151Z,3.70
2022-09-02T02:06:43.138Z,3.60
2022-09-02T02:11:48.951Z,2.87
2022-09-02T02:16:52.724Z,4.20
2022-09-02T02:21:56.260Z,2.90
2022-09-02T02:27:01.357Z,2.90
2022-09-02T02:32:05.336Z,3.27
2022-09-02T02:37:08.988Z,3.10
2022-09-02T02:42:14.054Z,4.00
2022-09-02T02:47:17.694Z,3.63
2022-09-02T02:52:21.392Z,2.73
2022-09-02T02:57:26.478Z,2.80
2022-09-02T03:02:34.565Z,3.37
2022-09-02T03:07:38.240Z,3.20
2022-09-02T03:12:45.175Z,3.13
2022-09-02T03:17:49.416Z,3.07
2022-09-02T03:22:55.256Z,3.17
2022-09-02T03:28:00.374Z,3.87
2022-09-02T03:33:05.592Z,3.27
2022-09-02T03:38:10.112Z,3.30
2022-09-02T03:43:15.315Z,3.30
2022-09-02T03:48:18.901Z,3.33
2022-09-02T03:53:22.564Z,5.07
2022-09-02T03:58:27.682Z,3.33
2022-09-02T04:03:31.832Z,3.50
2022-09-02T04:08:35.448Z,3.97
2022-09-02T04:13:41.056Z,3.90
2022-09-02T04:18:44.858Z,3.50
2022-09-02T04:23:48.657Z,3.50
2022-09-02T04:28:55.201Z,3.60
2022-09-02T04:33:59.430Z,4.83
2022-09-02T04:39:03.537Z,3.77
2022-09-02T04:44:08.725Z,3.53
2022-09-02T04:49:12.212Z,3.83
2022-09-02T04:54:16.075Z,3.67
2022-09-02T04:59:21.537Z,3.80
2022-09-02T05:04:25.122Z,4.93
2022-09-02T05:09:29.124Z,4.60
2022-09-02T05:14:34.867Z,4.60
2022-09-02T05:19:38.595Z,4.70
2022-09-02T05:24:42.979Z,4.97
2022-09-02T05:29:48.360Z,5.57
2022-09-02T05:34:52.332Z,8.83
2022-09-02T05:39:55.953Z,6.17
2022-09-02T05:45:01.008Z,4.80
2022-09-02T05:50:05.333Z,7.60
2022-09-02T05:55:11.601Z,10.50
2022-09-02T06:00:18.258Z,7.17
2022-09-02T06:05:22.888Z,5.90
2022-09-02T06:10:26.560Z,7.67
2022-09-02T06:15:33.389Z,8.17
2022-09-02T06:20:37.166Z,6.93
2022-09-02T06:25:44.706Z,5.23
2022-09-02T06:30:50.509Z,4.77
2022-09-02T06:35:54.290Z,4.70
2022-09-02T06:40:58.092Z,5.43
2022-09-02T06:46:06.403Z,6.43
2022-09-02T06:51:10.286Z,4.90
2022-09-02T06:56:14.111Z,4.77
2022-09-02T07:01:24.599Z,4.20
2022-09-02T07:06:28.712Z,4.80
2022-09-02T07:11:32.517Z,4.40
2022-09-02T07:16:43.866Z,3.87
2022-09-02T07:21:47.722Z,3.37
2022-09-02T07:26:53.584Z,4.23
2022-09-02T07:32:00.836Z,4.40
2022-09-02T07:37:10.663Z,5.80
2022-09-02T07:42:15.057Z,3.43
2022-09-02T07:47:20.703Z,3.93
2022-09-02T07:52:26.378Z,3.50
2022-09-02T07:57:30.682Z,4.77
2022-09-02T08:02:36.197Z,4.20
2022-09-02T08:07:39.996Z,3.17
2022-09-02T08:12:44.726Z,4.53
2022-09-02T08:17:50.539Z,3.20
2022-09-02T08:23:05.066Z,4.00
2022-09-02T08:28:15.721Z,2.97
2022-09-02T08:33:21.054Z,2.73
2022-09-02T08:38:24.759Z,4.10
2022-09-02T08:43:40.374Z,2.87
2022-09-02T08:48:50.415Z,2.73
2022-09-02T08:54:00.341Z,3.97
2022-09-02T08:59:07.429Z,2.83
2022-09-02T09:04:32.291Z,3.03
2022-09-02T09:09:46.088Z,2.70
2022-09-02T09:14:55.731Z,3.77
2022-09-02T09:20:04.765Z,2.73
2022-09-02T09:25:12.876Z,2.63
2022-09-02T09:30:16.435Z,2.73
2022-09-02T09:35:21.488Z,2.67
2022-09-02T09:40:31.905Z,2.77
2022-09-02T09:45:36.984Z,2.90
2022-09-02T09:50:42.024Z,2.30
2022-09-02T09:55:54.819Z,3.17
2022-09-02T10:01:00.949Z,2.57
2022-09-02T10:06:22.396Z,2.50
2022-09-02T10:11:27.977Z,2.60
2022-09-02T10:16:53.792Z,2.47
2022-09-02T10:22:37.841Z,2.80
2022-09-02T10:27:56.217Z,2.83
2022-09-02T10:33:23.944Z,3.20
2022-09-02T10:38:40.443Z,3.20
2022-09-02T10:44:00.272Z,3.17
2022-09-02T10:49:14.120Z,3.30
2022-09-02T10:54:37.746Z,3.03
2022-09-02T10:59:45.153Z,2.60
2022-09-02T11:04:54.970Z,2.50
2022-09-02T11:10:07.095Z,3.17
2022-09-02T11:15:17.743Z,2.40
2022-09-02T11:20:32.194Z,2.37
2022-09-02T11:25:44.342Z,2.53
2022-09-02T11:30:54.758Z,3.90
2022-09-02T11:36:00.662Z,3.00
2022-09-02T11:41:35.890Z,2.40
2022-09-02T11:47:02.063Z,2.77
2022-09-02T11:52:20.126Z,2.33
2022-09-02T11:57:27.114Z,2.13
2022-09-02T12:02:38.457Z,2.40
2022-09-02T12:07:49.801Z,2.87
2022-09-02T12:13:33.440Z,2.47
2022-09-02T12:18:37.090Z,2.30
2022-09-02T12:24:19.995Z,2.70
2022-09-02T12:29:35.308Z,2.20
2022-09-02T12:34:56.925Z,2.23
2022-09-02T12:40:11.320Z,3.20
2022-09-02T12:45:29.238Z,2.30
2022-09-02T12:50:53.920Z,2.20
2022-09-02T12:56:01.961Z,3.23
2022-09-02T13:01:15.021Z,2.73
2022-09-02T13:06:26.935Z,2.33
2022-09-02T13:12:04.387Z,3.90
2022-09-02T13:17:37.132Z,2.87
2022-09-02T13:23:18.066Z,2.20
2022-09-02T13:29:01.068Z,2.37
2022-09-02T13:34:08.553Z,2.17
2022-09-02T13:39:17.271Z,3.10
2022-09-02T13:44:24.388Z,2.43
2022-09-02T13:49:37.454Z,4.13
2022-09-02T13:54:44.920Z,2.83
2022-09-02T13:59:50.707Z,2.03
2022-09-02T14:05:00.336Z,2.33
2022-09-02T14:10:08.389Z,2.40
2022-09-02T14:15:15.656Z,2.90
2022-09-02T14:20:23.155Z,2.53
2022-09-02T14:25:28.283Z,3.47
2022-09-02T14:30:36.647Z,2.80
2022-09-02T14:35:42.742Z,2.73
2022-09-02T14:40:48.342Z,3.80
2022-09-02T14:45:52.268Z,4.13
2022-09-02T14:51:05.405Z,2.55
2022-09-02T14:56:09.273Z,2.58
2022-09-02T15:01:13.803Z,2.30
2022-09-02T15:06:19.547Z,2.67
2022-09-02T15:11:23.195Z,2.43
2022-09-02T15:16:27.307Z,4.10
2022-09-02T15:21:32.811Z,2.53
2022-09-02T15:26:36.782Z,5.20
2022-09-02T15:31:40.747Z,2.40
2022-09-02T15:36:46.158Z,2.53
2022-09-02T15:41:54.657Z,4.47
2022-09-02T15:46:58.165Z,2.20
2022-09-02T15:52:03.812Z,2.23
2022-09-02T15:57:07.458Z,2.50
2022-09-02T16:02:11.094Z,3.10
2022-09-02T16:07:18.332Z,2.30
2022-09-02T16:12:21.924Z,3.33
2022-09-02T16:17:25.402Z,2.03
2022-09-02T16:22:30.371Z,3.30
2022-09-02T16:27:47.582Z,2.03
2022-09-02T16:32:51.850Z,2.40
2022-09-02T16:38:03.227Z,2.57
2022-09-02T16:43:06.708Z,2.20
2022-09-02T16:48:10.149Z,3.27
2022-09-02T16:53:15.850Z,2.73
2022-09-02T16:58:20.273Z,2.43
2022-09-02T17:03:23.965Z,2.80
2022-09-02T17:08:29.693Z,2.23
2022-09-02T17:13:33.155Z,3.13
2022-09-02T17:18:36.763Z,2.10
2022-09-02T17:23:41.825Z,2.03
2022-09-02T17:28:48.715Z,2.07
2022-09-02T17:33:53.526Z,2.30
2022-09-02T17:38:59.563Z,3.10
2022-09-02T17:44:03.188Z,2.93
2022-09-02T17:49:16.899Z,2.47
2022-09-02T17:54:22.932Z,2.40
2022-09-02T17:59:33.786Z,2.20
2022-09-02T18:04:50.446Z,3.47
2022-09-02T18:09:56.574Z,3.40
2022-09-02T18:15:02.503Z,2.33
2022-09-02T18:20:12.047Z,3.30
2022-09-02T18:25:29.437Z,2.50
2022-09-02T18:30:40.038Z,2.10
2022-09-02T18:35:52.189Z,2.17
2022-09-02T18:41:09.738Z,2.20
2022-09-02T18:46:14.583Z,2.37
2022-09-02T18:51:29.807Z,2.00
2022-09-02T18:56:39.092Z,2.90
2022-09-02T19:01:46.776Z,2.50
2022-09-02T19:06:51.981Z,3.53
2022-09-02T19:11:56.998Z,6.10
2022-09-02T19:17:00.757Z,2.80
2022-09-02T19:22:11.460Z,2.30
2022-09-02T19:27:20.659Z,3.77
2022-09-02T19:32:29.097Z,2.73
2022-09-02T19:37:44.771Z,2.30
2022-09-02T19:42:52.904Z,2.47
2022-09-02T19:48:12.435Z,5.27
2022-09-02T19:53:21.123Z,2.70
2022-09-02T19:58:26.140Z,2.50
2022-09-02T20:03:30.108Z,3.93
2022-09-02T20:08:34.677Z,2.70
2022-09-02T20:13:41.917Z,3.90
2022-09-02T20:18:50.603Z,3.73
2022-09-02T20:23:54.475Z,3.40
2022-09-02T20:29:17.049Z,2.70
2022-09-02T20:34:32.747Z,2.83
2022-09-02T20:39:53.534Z,4.37
2022-09-02T20:45:05.516Z,3.00
2022-09-02T20:51:14.360Z,3.03
2022-09-02T20:56:23.963Z,2.60
2022-09-02T21:01:31.812Z,2.70
2022-09-02T21:06:39.084Z,3.50
2022-09-02T21:11:51.535Z,2.90
2022-09-02T21:17:03.963Z,2.70
2022-09-02T21:22:14.961Z,3.40
2022-09-02T21:27:22.025Z,4.30
2022-09-02T21:32:32.117Z,4.03
2022-09-02T21:37:37.288Z,3.67
2022-09-02T21:43:00.949Z,3.10
2022-09-02T21:48:23.043Z,3.20
2022-09-02T21:53:46.033Z,3.57
2022-09-02T21:59:08.153Z,2.90
2022-09-02T22:04:24.603Z,2.80
2022-09-02T22:09:31.521Z,3.80
2022-09-02T22:14:44.455Z,3.23
2022-09-02T22:19:58.117Z,4.13
2022-09-02T22:25:01.762Z,3.97
2022-09-02T22:30:09.179Z,3.10
2022-09-02T22:35:25.279Z,3.30
2022-09-02T22:40:33.333Z,3.37
2022-09-02T22:46:00.943Z,3.50
2022-09-02T22:51:26.978Z,3.20
2022-09-02T22:56:39.902Z,3.53
2022-09-02T23:01:53.899Z,3.13
2022-09-02T23:07:05.831Z,4.47
2022-09-02T23:12:28.884Z,3.90
2022-09-02T23:17:40.696Z,3.30
2022-09-02T23:23:16.399Z,5.00
2022-09-02T23:28:28.422Z,3.27
2022-09-02T23:33:51.517Z,3.03
2022-09-02T23:39:17.670Z,3.50
2022-09-02T23:44:23.193Z,4.10
2022-09-02T23:49:38.258Z,3.17
2022-09-02T23:54:57.585Z,3.43
